Commodore Goodwill — C6NU8 — position and weather

sailwx.info

Track history (hours):
 
Tides and Currents Weather Stations Pressure Air Temp Water Temp Dewpoint Dewpoint Depression Visibility Wind Speed Wind Dir Waves Ship Positions

Commodore Goodwill

Operator: Condor Marine Services

Last reported at 2018-Nov-11 01:30 UTC. Time now 2018-Nov-14 02:17 UTC.
Position N 49°32' W 002°13'.

Length 126 m; draft 5.1 m.

Type: Ship (hazmat cat C). MMSI: 309536000.

Date/timePositionNaut miles runAvg speedWind from/ knotsBaromVisibWave heightAir tempDewpointWater temp
2018-Nov-11 01:30N 49°32' W 002°13'4 7.8
2018-Nov-11 01:00N 49°29' W 002°17'6 7.6
2018-Nov-11 00:10N 49°23' W 002°17'1 5.0
2018-Nov-10 23:58N 49°22' W 002°17'7 0.2
2018-Nov-09 05:47N 49°24' W 002°28'416.3
2018-Nov-09 05:32N 49°27' W 002°31'1 1.5
2018-Nov-09 05:02N 49°27' W 002°32'0 0.0
2018-Nov-09 04:31N 49°27' W 002°32'2 3.9
2018-Nov-09 04:02N 49°26' W 002°30'1415.3
2018-Nov-09 03:06N 49°34' W 002°11'918.6
2018-Nov-09 02:38N 49°42' W 002°06'618.3
2018-Nov-09 02:17N 49°47' W 001°60'415.0
2018-Nov-09 02:02N 49°50' W 001°57'714.7
2018-Nov-09 01:33N 49°56' W 001°51'815.4
2018-Nov-09 01:02N 50°03' W 001°45'816.7
2018-Nov-09 00:32N 50°10' W 001°37'2117.2
2018-Nov-08 23:17N 50°27' W 001°18'416.6
2018-Nov-08 23:02N 50°31' W 001°14'816.6
2018-Nov-08 22:32N 50°38' W 001°07'714.3
2018-Nov-08 22:03N 50°45' W 001°05'4 8.3
2018-Nov-08 21:32N 50°49' W 001°06'0 0.0
2018-Nov-08 21:02N 50°49' W 001°06'0 0.0
2018-Nov-08 20:32N 50°49' W 001°06'0 0.0
2018-Nov-08 20:02N 50°49' W 001°06'0 0.0
2018-Nov-08 19:32N 50°49' W 001°06'0 0.0
2018-Nov-08 19:02N 50°49' W 001°06'0 0.0
2018-Nov-08 18:32N 50°49' W 001°06'2 4.2
2018-Nov-08 18:03N 50°47' W 001°06'714.8
2018-Nov-08 17:33N 50°39' W 001°05'918.1
2018-Nov-08 17:02N 50°32' W 001°13'3316.9
2018-Nov-08 15:05N 50°04' W 001°42'115.7
2018-Nov-08 15:02N 50°04' W 001°42'815.4
2018-Nov-08 14:32N 49°57' W 001°49'815.4
2018-Nov-08 14:02N 49°51' W 001°55'814.0
2018-Nov-08 13:30N 49°45' W 002°02'1213.7
2018-Nov-08 12:38N 49°34' W 002°10'616.1
2018-Nov-08 12:15N 49°31' W 002°18'417.0
2018-Nov-08 12:02N 49°28' W 002°22'611.7
2018-Nov-08 11:32N 49°27' W 002°31'1 1.2
2018-Nov-08 11:02N 49°27' W 002°32'0 0.0
2018-Nov-08 10:31N 49°27' W 002°32'1 2.2
2018-Nov-08 10:02N 49°27' W 002°30'1918.8
2018-Nov-08 09:03N 49°11' W 002°17'39 5.9
2018-Nov-08 02:31N 49°48' W 002°01'817.3
2018-Nov-08 02:02N 49°54' W 001°53'714.8
2018-Nov-08 01:32N 50°01' W 001°49'714.0
2018-Nov-08 01:03N 50°07' W 001°42'514.0
2018-Nov-08 00:43N 50°10' W 001°37'313.9
2018-Nov-08 00:32N 50°12' W 001°35'114.6
2018-Nov-08 00:27N 50°13' W 001°34'1716.6
2018-Nov-07 23:24N 50°27' W 001°18'617.2
2018-Nov-07 23:02N 50°32' W 001°12'918.2
2018-Nov-07 22:32N 50°40' W 001°04'714.2
2018-Nov-07 22:02N 50°47' W 001°06'2 3.8
2018-Nov-07 21:32N 50°49' W 001°06'0 0.0
2018-Nov-07 21:02N 50°49' W 001°06'0 0.0
2018-Nov-07 20:32N 50°49' W 001°06'0 0.0
2018-Nov-07 20:02N 50°49' W 001°06'0 0.0
2018-Nov-07 19:32N 50°49' W 001°06'3 6.5
2018-Nov-07 19:03N 50°46' W 001°05'713.4
2018-Nov-07 18:32N 50°39' W 001°05'1120.6
2018-Nov-07 18:02N 50°29' W 001°13'2819.2
2018-Nov-07 16:34N 50°07' W 001°38'117.3
2018-Nov-07 16:32N 50°06' W 001°39'918.0
2018-Nov-07 16:02N 49°59' W 001°46'917.3
2018-Nov-07 15:32N 49°52' W 001°54'916.6
2018-Nov-07 14:58N 49°44' W 002°03'915.2
2018-Nov-07 14:22N 49°35' W 002°08'917.3
2018-Nov-07 13:51N 49°30' W 002°18'516.6
2018-Nov-07 13:32N 49°27' W 002°25'4 8.6
2018-Nov-07 13:02N 49°27' W 002°32'0 0.0
2018-Nov-07 12:32N 49°27' W 002°32'0 0.0
2018-Nov-07 12:02N 49°27' W 002°32'0 0.0
2018-Nov-07 11:31N 49°27' W 002°32'0 0.0
2018-Nov-07 11:02N 49°27' W 002°32'0 0.0
2018-Nov-07 10:30N 49°27' W 002°32'2 4.6
2018-Nov-07 10:02N 49°26' W 002°29'814.9
2018-Nov-07 09:30N 49°30' W 002°19'4 9.3
2018-Nov-07 09:02N 49°27' W 002°24'0 0.0
2018-Nov-07 08:31N 49°27' W 002°24'7 9.6
2018-Nov-07 07:51N 49°31' W 002°16'411.2
2018-Nov-07 07:30N 49°29' W 002°21'4 9.1
2018-Nov-07 07:01N 49°26' W 002°26'3 5.2
2018-Nov-07 06:31N 49°28' W 002°23'3 6.4
2018-Nov-07 06:02N 49°30' W 002°19'4 8.0
2018-Nov-07 05:32N 49°27' W 002°24'1 2.6
2018-Nov-07 05:02N 49°26' W 002°26'2 3.5
2018-Nov-07 04:31N 49°28' W 002°24'47 9.3
2018-Nov-06 23:30N 50°06' W 001°44'715.3
2018-Nov-06 23:01N 50°12' W 001°36'015.3
2018-Nov-06 23:00N 50°12' W 001°35'2014.8
2018-Nov-06 21:40N 50°28' W 001°17'314.4
2018-Nov-06 21:26N 50°31' W 001°14'514.3
2018-Nov-06 21:03N 50°35' W 001°09'114.5
2018-Nov-06 21:00N 50°36' W 001°09'713.8
2018-Nov-06 20:30N 50°41' W 001°03'613.1
2018-Nov-06 20:03N 50°47' W 001°06'0 8.7
2018-Nov-06 20:00N 50°47' W 001°06'2 3.3
2018-Nov-06 19:30N 50°49' W 001°06'0 0.0
2018-Nov-06 19:03N 50°49' W 001°06'0 0.0
2018-Nov-06 19:01N 50°49' W 001°06'0 0.0
2018-Nov-06 18:30N 50°49' W 001°06'0 0.0
2018-Nov-06 18:03N 50°49' W 001°06'0 0.0
2018-Nov-06 18:00N 50°49' W 001°06'0 0.0
2018-Nov-06 17:31N 50°49' W 001°06'0 0.0
2018-Nov-06 17:04N 50°49' W 001°06'0 0.0
2018-Nov-06 17:00N 50°49' W 001°06'0 0.0
2018-Nov-06 16:31N 50°49' W 001°06'1 3.1
2018-Nov-06 16:03N 50°48' W 001°07'110.4
2018-Nov-06 16:00N 50°47' W 001°06'714.1
2018-Nov-06 15:30N 50°40' W 001°04'716.4
2018-Nov-06 15:03N 50°34' W 001°10'113.5
2018-Nov-06 15:00N 50°33' W 001°11'713.3
2018-Nov-06 14:30N 50°28' W 001°17'2613.2
2018-Nov-06 12:33N 50°07' W 001°40'013.1
2018-Nov-06 12:30N 50°06' W 001°40'613.0
2018-Nov-06 12:03N 50°02' W 001°46'113.5
2018-Nov-06 12:00N 50°01' W 001°46'713.4
2018-Nov-06 11:31N 49°55' W 001°52'613.4
2018-Nov-06 11:03N 49°50' W 001°57'113.5
2018-Nov-06 11:00N 49°50' W 001°58'3614.3
2018-Nov-06 08:29N 49°17' W 002°20'916.9
2018-Nov-06 07:58N 49°10' W 002°13'17 4.9
2018-Nov-06 04:26N 49°24' W 002°28'411.2
2018-Nov-06 04:03N 49°27' W 002°32'0 0.0
2018-Nov-06 04:00N 49°27' W 002°32'0 0.0
2018-Nov-06 03:30N 49°27' W 002°32'0 0.0
2018-Nov-06 03:03N 49°27' W 002°32'0 0.0
2018-Nov-06 03:00N 49°27' W 002°32'4 8.3
2018-Nov-06 02:30N 49°26' W 002°26'1314.2
2018-Nov-06 01:36N 49°34' W 002°10'1113.6
2018-Nov-06 00:48N 49°44' W 002°04'1914.4
2018-Nov-05 23:30N 49°60' W 001°47'715.7
2018-Nov-05 23:03N 50°05' W 001°42'115.3
2018-Nov-05 23:01N 50°06' W 001°41'1015.2
2018-Nov-05 22:21N 50°14' W 001°32'515.5
2018-Nov-05 22:02N 50°18' W 001°27'1115.1
2018-Nov-05 21:16N 50°27' W 001°17'414.6
2018-Nov-05 20:59N 50°31' W 001°13'714.0
2018-Nov-05 20:30N 50°37' W 001°07'613.2
2018-Nov-05 20:03N 50°42' W 001°03'114.1
2018-Nov-05 20:00N 50°42' W 001°03'612.4
2018-Nov-05 19:30N 50°48' W 001°07'1 2.2
2018-Nov-05 19:03N 50°49' W 001°06'0 0.0
2018-Nov-05 19:00N 50°49' W 001°06'0 0.0
2018-Nov-05 18:30N 50°49' W 001°06'0 0.0
2018-Nov-05 18:03N 50°49' W 001°06'0 0.0
2018-Nov-05 18:00N 50°49' W 001°06'0 0.0
2018-Nov-05 17:30N 50°49' W 001°06'0 0.0
2018-Nov-05 17:03N 50°49' W 001°06'0 0.0
2018-Nov-05 17:00N 50°49' W 001°06'0 0.0
2018-Nov-05 16:30N 50°49' W 001°06'1 2.8
2018-Nov-05 16:03N 50°48' W 001°07'111.2
2018-Nov-05 16:00N 50°47' W 001°06'714.3
2018-Nov-05 15:30N 50°40' W 001°04'714.8
2018-Nov-05 15:03N 50°35' W 001°10'012.6
2018-Nov-05 15:00N 50°34' W 001°10'713.9
2018-Nov-05 14:30N 50°28' W 001°17'2614.0
2018-Nov-05 12:37N 50°07' W 001°41'214.7
2018-Nov-05 12:31N 50°06' W 001°43'614.1
2018-Nov-05 12:04N 50°01' W 001°48'115.8
2018-Nov-05 12:00N 50°00' W 001°49'815.9
2018-Nov-05 11:30N 49°53' W 001°54'1015.2
2018-Nov-05 10:52N 49°45' W 002°02'3214.7
2018-Nov-05 08:41N 49°15' W 002°21'917.2
2018-Nov-05 08:10N 49°10' W 002°10'9 3.0
2018-Nov-05 05:02N 49°12' W 002°24'615.3
2018-Nov-05 04:36N 49°16' W 002°32'212.8
2018-Nov-05 04:29N 49°17' W 002°33'716.7
2018-Nov-05 04:03N 49°24' W 002°28'111.6
2018-Nov-05 04:00N 49°25' W 002°29'3 6.9
2018-Nov-05 03:30N 49°27' W 002°32'0 0.0
2018-Nov-05 03:03N 49°27' W 002°32'0 0.0
2018-Nov-05 03:00N 49°27' W 002°32'4 8.3
2018-Nov-05 02:30N 49°26' W 002°25'510.7
2018-Nov-05 02:03N 49°29' W 002°19'0 8.8
2018-Nov-05 02:00N 49°30' W 002°19'510.4
2018-Nov-05 01:29N 49°33' W 002°12'1715.1
2018-Nov-05 00:22N 49°47' W 001°59'516.0
2018-Nov-05 00:04N 49°52' W 001°55'114.6
2018-Nov-05 00:00N 49°52' W 001°55'713.8
2018-Nov-04 23:30N 49°58' W 001°49'614.1
2018-Nov-04 23:03N 50°04' W 001°44'114.8
2018-Nov-04 23:00N 50°04' W 001°43'814.8
2018-Nov-04 22:30N 50°11' W 001°37'2114.0
2018-Nov-04 20:58N 50°28' W 001°17'613.4
2018-Nov-04 20:30N 50°33' W 001°12'613.0
2018-Nov-04 20:03N 50°38' W 001°07'113.3
2018-Nov-04 19:59N 50°39' W 001°06'511.2
2018-Nov-04 19:30N 50°44' W 001°04'510.9
2018-Nov-04 19:03N 50°48' W 001°07'0 8.3
2018-Nov-04 19:00N 50°49' W 001°06'1 1.1
2018-Nov-04 18:30N 50°49' W 001°06'0 0.0
2018-Nov-04 18:03N 50°49' W 001°06'0 0.0
2018-Nov-04 18:00N 50°49' W 001°06'0 0.0
2018-Nov-04 17:30N 50°49' W 001°06'0 0.0
2018-Nov-04 17:00N 50°49' W 001°06'0 0.0
2018-Nov-04 16:30N 50°49' W 001°06'0 0.0
2018-Nov-04 16:03N 50°49' W 001°06'0 0.0
2018-Nov-04 16:00N 50°49' W 001°06'0 0.0
2018-Nov-04 15:30N 50°49' W 001°06'0 0.0
2018-Nov-04 15:03N 50°49' W 001°06'0 0.0
2018-Nov-04 15:00N 50°49' W 001°06'0 0.0
2018-Nov-04 14:30N 50°49' W 001°06'0 0.0
2018-Nov-04 14:03N 50°49' W 001°06'0 0.0
2018-Nov-04 14:00N 50°49' W 001°06'0 0.0
2018-Nov-04 13:30N 50°49' W 001°06'0 0.0
2018-Nov-04 13:03N 50°49' W 001°06'0 0.0
2018-Nov-04 13:00N 50°49' W 001°06'0 0.0
2018-Nov-04 12:30N 50°49' W 001°06'0 0.0
2018-Nov-04 12:03N 50°49' W 001°06'0 0.0
2018-Nov-04 12:00N 50°49' W 001°06'0 0.0
2018-Nov-04 11:30N 50°49' W 001°06'0 0.0
2018-Nov-04 11:03N 50°49' W 001°06'0 0.0
2018-Nov-04 11:00N 50°49' W 001°06'0 0.0
2018-Nov-04 10:30N 50°49' W 001°06'0 0.0
2018-Nov-04 10:03N 50°49' W 001°06'0 0.0
2018-Nov-04 10:00N 50°49' W 001°06'0 0.0
2018-Nov-04 09:30N 50°49' W 001°06'0 0.0
2018-Nov-04 09:03N 50°49' W 001°06'0 0.0
2018-Nov-04 09:00N 50°49' W 001°06'0 0.0
2018-Nov-04 08:30N 50°49' W 001°06'0 0.0
2018-Nov-04 08:03N 50°49' W 001°06'0 0.0
2018-Nov-04 08:00N 50°49' W 001°06'0 0.0
2018-Nov-04 07:30N 50°49' W 001°06'1 2.1
2018-Nov-04 07:04N 50°48' W 001°07'113.0
2018-Nov-04 07:00N 50°47' W 001°07'714.9
2018-Nov-04 06:31N 50°40' W 001°04'919.1
2018-Nov-04 06:03N 50°33' W 001°12'117.9
2018-Nov-04 06:00N 50°32' W 001°12'2716.4
2018-Nov-04 04:22N 50°10' W 001°36'716.3
2018-Nov-04 03:57N 50°05' W 001°43'919.4
2018-Nov-04 03:30N 49°57' W 001°50'920.1
2018-Nov-04 03:03N 49°50' W 001°57'120.9
2018-Nov-04 03:00N 49°49' W 001°58'3910.3
2018-Nov-03 23:16N 49°11' W 002°07'28 3.8
2018-Nov-03 16:04N 48°43' W 002°06'45 6.9
2018-Nov-03 09:34N 49°25' W 002°29'118.3
2018-Nov-03 09:30N 49°26' W 002°30'2 4.1
2018-Nov-03 09:04N 49°27' W 002°32'0 0.0
2018-Nov-03 09:00N 49°27' W 002°32'0 0.0
2018-Nov-03 08:30N 49°27' W 002°32'0 0.0
2018-Nov-03 08:02N 49°27' W 002°32'0 0.0
2018-Nov-03 08:00N 49°27' W 002°32'1112.1
2018-Nov-03 07:07N 49°18' W 002°24'33 4.9
2018-Nov-03 00:25N 49°47' W 002°01'513.2
2018-Nov-03 00:03N 49°51' W 001°56'113.4
2018-Nov-03 00:00N 49°52' W 001°56'613.2
2018-Nov-02 23:31N 49°58' W 001°51'612.5
2018-Nov-02 23:03N 50°02' W 001°46'113.2
2018-Nov-02 23:00N 50°03' W 001°45'713.1
2018-Nov-02 22:30N 50°08' W 001°38'714.8
2018-Nov-02 22:03N 50°13' W 001°32'1919.3
2018-Nov-02 21:05N 50°29' W 001°16'119.6
2018-Nov-02 21:03N 50°29' W 001°16'119.7
2018-Nov-02 21:00N 50°30' W 001°15'1019.8
2018-Nov-02 20:30N 50°38' W 001°06'715.1
2018-Nov-02 20:03N 50°45' W 001°05'116.4
2018-Nov-02 20:00N 50°46' W 001°05'3 5.7
2018-Nov-02 19:30N 50°49' W 001°06'0 0.0
2018-Nov-02 19:03N 50°49' W 001°06'0 0.0
2018-Nov-02 19:00N 50°49' W 001°06'0 0.0
2018-Nov-02 18:30N 50°49' W 001°06'0 0.0
2018-Nov-02 18:03N 50°49' W 001°06'0 0.0
2018-Nov-02 18:00N 50°49' W 001°06'0 0.0
2018-Nov-02 17:30N 50°49' W 001°06'0 0.0
2018-Nov-02 17:03N 50°49' W 001°06'0 0.1
2018-Nov-02 17:00N 50°49' W 001°06'0 0.0
2018-Nov-02 16:30N 50°49' W 001°06'1 2.4
2018-Nov-02 16:03N 50°48' W 001°07'112.0
2018-Nov-02 16:00N 50°47' W 001°07'714.8
2018-Nov-02 15:30N 50°40' W 001°04'511.5
2018-Nov-02 15:03N 50°36' W 001°08'0 7.9
2018-Nov-02 15:00N 50°36' W 001°09'510.5
2018-Nov-02 14:30N 50°31' W 001°13'3116.2
2018-Nov-02 12:36N 50°05' W 001°40'217.8
2018-Nov-02 12:30N 50°04' W 001°41'716.3
2018-Nov-02 12:04N 49°58' W 001°48'118.3
2018-Nov-02 12:00N 49°57' W 001°49'918.8
2018-Nov-02 11:30N 49°50' W 001°57'3817.7
2018-Nov-02 09:22N 49°15' W 002°21'7 1.5
2018-Nov-02 04:43N 49°21' W 002°26'418.3
2018-Nov-02 04:30N 49°25' W 002°29'3 7.4
2018-Nov-02 04:03N 49°27' W 002°32'0 0.0
2018-Nov-02 04:00N 49°27' W 002°32'0 0.0
2018-Nov-02 03:30N 49°27' W 002°32'0 0.0
2018-Nov-02 03:03N 49°27' W 002°32'0 0.0
2018-Nov-02 03:00N 49°27' W 002°32'4 8.0
2018-Nov-02 02:30N 49°26' W 002°26'611.3
2018-Nov-02 01:59N 49°30' W 002°19'812.5
2018-Nov-02 01:22N 49°34' W 002°09'911.2
2018-Nov-02 00:33N 49°43' W 002°05'510.6
2018-Nov-02 00:07N 49°47' W 001°60'111.4
2018-Nov-02 00:03N 49°47' W 001°59'111.7
2018-Nov-02 00:00N 49°47' W 001°59'612.5
2018-Nov-01 23:30N 49°52' W 001°52'613.2
2018-Nov-01 23:03N 49°57' W 001°46'112.8
2018-Nov-01 23:01N 49°57' W 001°46'918.3
2018-Nov-01 22:31N 50°06' W 001°40'2719.1
2018-Nov-01 21:05N 50°28' W 001°17'119.5
2018-Nov-01 21:03N 50°29' W 001°16'119.5
2018-Nov-01 21:00N 50°30' W 001°16'1019.7
2018-Nov-01 20:30N 50°38' W 001°06'614.6
2018-Nov-01 20:03N 50°44' W 001°04'114.0
2018-Nov-01 20:00N 50°44' W 001°05'4 8.7
2018-Nov-01 19:30N 50°49' W 001°06'0 0.0
2018-Nov-01 19:03N 50°49' W 001°06'0 0.0
2018-Nov-01 19:00N 50°49' W 001°06'0 0.0
2018-Nov-01 18:30N 50°49' W 001°06'0 0.0
2018-Nov-01 18:03N 50°49' W 001°06'0 0.0
2018-Nov-01 18:00N 50°49' W 001°06'0 0.0
2018-Nov-01 17:30N 50°49' W 001°06'0 0.0
2018-Nov-01 17:03N 50°49' W 001°06'0 0.0
2018-Nov-01 17:00N 50°49' W 001°06'0 0.0
2018-Nov-01 16:30N 50°49' W 001°06'1 2.3
2018-Nov-01 16:03N 50°48' W 001°07'112.1
2018-Nov-01 16:01N 50°47' W 001°07'714.7
2018-Nov-01 15:31N 50°40' W 001°04'613.8
2018-Nov-01 15:03N 50°35' W 001°09'115.6
2018-Nov-01 15:00N 50°34' W 001°10'714.3
2018-Nov-01 14:30N 50°28' W 001°16'2112.2
2018-Nov-01 12:46N 50°11' W 001°34'413.5
2018-Nov-01 12:28N 50°07' W 001°38'613.5
2018-Nov-01 12:01N 50°02' W 001°43'014.4
2018-Nov-01 12:00N 50°02' W 001°44'613.3
2018-Nov-01 11:30N 49°57' W 001°49'919.4
2018-Nov-01 11:04N 49°50' W 001°57'119.9
2018-Nov-01 11:00N 49°49' W 001°58'32 4.9
2018-Nov-01 04:20N 49°23' W 002°27'415.8
2018-Nov-01 04:03N 49°27' W 002°30'114.6
2018-Nov-01 04:00N 49°27' W 002°30'1 1.7
2018-Nov-01 03:30N 49°27' W 002°32'0 0.0
2018-Nov-01 03:03N 49°27' W 002°32'0 0.0
2018-Nov-01 03:00N 49°27' W 002°32'4 8.1
2018-Nov-01 02:30N 49°26' W 002°26'  
Track history (hours):
 
Tides and Currents Weather Stations Pressure Air Temp Water Temp Dewpoint Dewpoint Depression Visibility Wind Speed Wind Dir Waves Ship Positions

Commodore Goodwill

Operator: Condor Marine Services

Last reported at 2018-Nov-11 01:30 UTC. Time now 2018-Nov-14 02:17 UTC.
Position N 49°32' W 002°13'.

Length 126 m; draft 5.1 m.

Type: Ship (hazmat cat C). MMSI: 309536000.

Date/timePositionNaut miles runAvg speedWind from/ knotsBaromVisibWave heightAir tempDewpointWater temp
2018-Nov-11 01:30N 49°32' W 002°13'4 7.8
2018-Nov-11 01:00N 49°29' W 002°17'6 7.6
2018-Nov-11 00:10N 49°23' W 002°17'1 5.0
2018-Nov-10 23:58N 49°22' W 002°17'7 0.2
2018-Nov-09 05:47N 49°24' W 002°28'416.3
2018-Nov-09 05:32N 49°27' W 002°31'1 1.5
2018-Nov-09 05:02N 49°27' W 002°32'0 0.0
2018-Nov-09 04:31N 49°27' W 002°32'2 3.9
2018-Nov-09 04:02N 49°26' W 002°30'1415.3
2018-Nov-09 03:06N 49°34' W 002°11'918.6
2018-Nov-09 02:38N 49°42' W 002°06'618.3
2018-Nov-09 02:17N 49°47' W 001°60'415.0
2018-Nov-09 02:02N 49°50' W 001°57'714.7
2018-Nov-09 01:33N 49°56' W 001°51'815.4
2018-Nov-09 01:02N 50°03' W 001°45'816.7
2018-Nov-09 00:32N 50°10' W 001°37'2117.2
2018-Nov-08 23:17N 50°27' W 001°18'416.6
2018-Nov-08 23:02N 50°31' W 001°14'816.6
2018-Nov-08 22:32N 50°38' W 001°07'714.3
2018-Nov-08 22:03N 50°45' W 001°05'4 8.3
2018-Nov-08 21:32N 50°49' W 001°06'0 0.0
2018-Nov-08 21:02N 50°49' W 001°06'0 0.0
2018-Nov-08 20:32N 50°49' W 001°06'0 0.0
2018-Nov-08 20:02N 50°49' W 001°06'0 0.0
2018-Nov-08 19:32N 50°49' W 001°06'0 0.0
2018-Nov-08 19:02N 50°49' W 001°06'0 0.0
2018-Nov-08 18:32N 50°49' W 001°06'2 4.2
2018-Nov-08 18:03N 50°47' W 001°06'714.8
2018-Nov-08 17:33N 50°39' W 001°05'918.1
2018-Nov-08 17:02N 50°32' W 001°13'3316.9
2018-Nov-08 15:05N 50°04' W 001°42'115.7
2018-Nov-08 15:02N 50°04' W 001°42'815.4
2018-Nov-08 14:32N 49°57' W 001°49'815.4
2018-Nov-08 14:02N 49°51' W 001°55'814.0
2018-Nov-08 13:30N 49°45' W 002°02'1213.7
2018-Nov-08 12:38N 49°34' W 002°10'616.1
2018-Nov-08 12:15N 49°31' W 002°18'417.0
2018-Nov-08 12:02N 49°28' W 002°22'611.7
2018-Nov-08 11:32N 49°27' W 002°31'1 1.2
2018-Nov-08 11:02N 49°27' W 002°32'0 0.0
2018-Nov-08 10:31N 49°27' W 002°32'1 2.2
2018-Nov-08 10:02N 49°27' W 002°30'1918.8
2018-Nov-08 09:03N 49°11' W 002°17'39 5.9
2018-Nov-08 02:31N 49°48' W 002°01'817.3
2018-Nov-08 02:02N 49°54' W 001°53'714.8
2018-Nov-08 01:32N 50°01' W 001°49'714.0
2018-Nov-08 01:03N 50°07' W 001°42'514.0
2018-Nov-08 00:43N 50°10' W 001°37'313.9
2018-Nov-08 00:32N 50°12' W 001°35'114.6
2018-Nov-08 00:27N 50°13' W 001°34'1716.6
2018-Nov-07 23:24N 50°27' W 001°18'617.2
2018-Nov-07 23:02N 50°32' W 001°12'918.2
2018-Nov-07 22:32N 50°40' W 001°04'714.2
2018-Nov-07 22:02N 50°47' W 001°06'2 3.8
2018-Nov-07 21:32N 50°49' W 001°06'0 0.0
2018-Nov-07 21:02N 50°49' W 001°06'0 0.0
2018-Nov-07 20:32N 50°49' W 001°06'0 0.0
2018-Nov-07 20:02N 50°49' W 001°06'0 0.0
2018-Nov-07 19:32N 50°49' W 001°06'3 6.5
2018-Nov-07 19:03N 50°46' W 001°05'713.4
2018-Nov-07 18:32N 50°39' W 001°05'1120.6
2018-Nov-07 18:02N 50°29' W 001°13'2819.2
2018-Nov-07 16:34N 50°07' W 001°38'117.3
2018-Nov-07 16:32N 50°06' W 001°39'918.0
2018-Nov-07 16:02N 49°59' W 001°46'917.3
2018-Nov-07 15:32N 49°52' W 001°54'916.6
2018-Nov-07 14:58N 49°44' W 002°03'915.2
2018-Nov-07 14:22N 49°35' W 002°08'917.3
2018-Nov-07 13:51N 49°30' W 002°18'516.6
2018-Nov-07 13:32N 49°27' W 002°25'4 8.6
2018-Nov-07 13:02N 49°27' W 002°32'0 0.0
2018-Nov-07 12:32N 49°27' W 002°32'0 0.0
2018-Nov-07 12:02N 49°27' W 002°32'0 0.0
2018-Nov-07 11:31N 49°27' W 002°32'0 0.0
2018-Nov-07 11:02N 49°27' W 002°32'0 0.0
2018-Nov-07 10:30N 49°27' W 002°32'2 4.6
2018-Nov-07 10:02N 49°26' W 002°29'814.9
2018-Nov-07 09:30N 49°30' W 002°19'4 9.3
2018-Nov-07 09:02N 49°27' W 002°24'0 0.0
2018-Nov-07 08:31N 49°27' W 002°24'7 9.6
2018-Nov-07 07:51N 49°31' W 002°16'411.2
2018-Nov-07 07:30N 49°29' W 002°21'4 9.1
2018-Nov-07 07:01N 49°26' W 002°26'3 5.2
2018-Nov-07 06:31N 49°28' W 002°23'3 6.4
2018-Nov-07 06:02N 49°30' W 002°19'4 8.0
2018-Nov-07 05:32N 49°27' W 002°24'1 2.6
2018-Nov-07 05:02N 49°26' W 002°26'2 3.5
2018-Nov-07 04:31N 49°28' W 002°24'47 9.3
2018-Nov-06 23:30N 50°06' W 001°44'715.3
2018-Nov-06 23:01N 50°12' W 001°36'015.3
2018-Nov-06 23:00N 50°12' W 001°35'2014.8
2018-Nov-06 21:40N 50°28' W 001°17'314.4
2018-Nov-06 21:26N 50°31' W 001°14'514.3
2018-Nov-06 21:03N 50°35' W 001°09'114.5
2018-Nov-06 21:00N 50°36' W 001°09'713.8
2018-Nov-06 20:30N 50°41' W 001°03'613.1
2018-Nov-06 20:03N 50°47' W 001°06'0 8.7
2018-Nov-06 20:00N 50°47' W 001°06'2 3.3
2018-Nov-06 19:30N 50°49' W 001°06'0 0.0
2018-Nov-06 19:03N 50°49' W 001°06'0 0.0
2018-Nov-06 19:01N 50°49' W 001°06'0 0.0
2018-Nov-06 18:30N 50°49' W 001°06'0 0.0
2018-Nov-06 18:03N 50°49' W 001°06'0 0.0
2018-Nov-06 18:00N 50°49' W 001°06'0 0.0
2018-Nov-06 17:31N 50°49' W 001°06'0 0.0
2018-Nov-06 17:04N 50°49' W 001°06'0 0.0
2018-Nov-06 17:00N 50°49' W 001°06'0 0.0
2018-Nov-06 16:31N 50°49' W 001°06'1 3.1
2018-Nov-06 16:03N 50°48' W 001°07'110.4
2018-Nov-06 16:00N 50°47' W 001°06'714.1
2018-Nov-06 15:30N 50°40' W 001°04'716.4
2018-Nov-06 15:03N 50°34' W 001°10'113.5
2018-Nov-06 15:00N 50°33' W 001°11'713.3
2018-Nov-06 14:30N 50°28' W 001°17'2613.2
2018-Nov-06 12:33N 50°07' W 001°40'013.1
2018-Nov-06 12:30N 50°06' W 001°40'613.0
2018-Nov-06 12:03N 50°02' W 001°46'113.5
2018-Nov-06 12:00N 50°01' W 001°46'713.4
2018-Nov-06 11:31N 49°55' W 001°52'613.4
2018-Nov-06 11:03N 49°50' W 001°57'113.5
2018-Nov-06 11:00N 49°50' W 001°58'3614.3
2018-Nov-06 08:29N 49°17' W 002°20'916.9
2018-Nov-06 07:58N 49°10' W 002°13'17 4.9
2018-Nov-06 04:26N 49°24' W 002°28'411.2
2018-Nov-06 04:03N 49°27' W 002°32'0 0.0
2018-Nov-06 04:00N 49°27' W 002°32'0 0.0
2018-Nov-06 03:30N 49°27' W 002°32'0 0.0
2018-Nov-06 03:03N 49°27' W 002°32'0 0.0
2018-Nov-06 03:00N 49°27' W 002°32'4 8.3
2018-Nov-06 02:30N 49°26' W 002°26'1314.2
2018-Nov-06 01:36N 49°34' W 002°10'1113.6
2018-Nov-06 00:48N 49°44' W 002°04'1914.4
2018-Nov-05 23:30N 49°60' W 001°47'715.7
2018-Nov-05 23:03N 50°05' W 001°42'115.3
2018-Nov-05 23:01N 50°06' W 001°41'1015.2
2018-Nov-05 22:21N 50°14' W 001°32'515.5
2018-Nov-05 22:02N 50°18' W 001°27'1115.1
2018-Nov-05 21:16N 50°27' W 001°17'414.6
2018-Nov-05 20:59N 50°31' W 001°13'714.0
2018-Nov-05 20:30N 50°37' W 001°07'613.2
2018-Nov-05 20:03N 50°42' W 001°03'114.1
2018-Nov-05 20:00N 50°42' W 001°03'612.4
2018-Nov-05 19:30N 50°48' W 001°07'1 2.2
2018-Nov-05 19:03N 50°49' W 001°06'0 0.0
2018-Nov-05 19:00N 50°49' W 001°06'0 0.0
2018-Nov-05 18:30N 50°49' W 001°06'0 0.0
2018-Nov-05 18:03N 50°49' W 001°06'0 0.0
2018-Nov-05 18:00N 50°49' W 001°06'0 0.0
2018-Nov-05 17:30N 50°49' W 001°06'0 0.0
2018-Nov-05 17:03N 50°49' W 001°06'0 0.0
2018-Nov-05 17:00N 50°49' W 001°06'0 0.0
2018-Nov-05 16:30N 50°49' W 001°06'1 2.8
2018-Nov-05 16:03N 50°48' W 001°07'111.2
2018-Nov-05 16:00N 50°47' W 001°06'714.3
2018-Nov-05 15:30N 50°40' W 001°04'714.8
2018-Nov-05 15:03N 50°35' W 001°10'012.6
2018-Nov-05 15:00N 50°34' W 001°10'713.9
2018-Nov-05 14:30N 50°28' W 001°17'2614.0
2018-Nov-05 12:37N 50°07' W 001°41'214.7
2018-Nov-05 12:31N 50°06' W 001°43'614.1
2018-Nov-05 12:04N 50°01' W 001°48'115.8
2018-Nov-05 12:00N 50°00' W 001°49'815.9
2018-Nov-05 11:30N 49°53' W 001°54'1015.2
2018-Nov-05 10:52N 49°45' W 002°02'3214.7
2018-Nov-05 08:41N 49°15' W 002°21'917.2
2018-Nov-05 08:10N 49°10' W 002°10'9 3.0
2018-Nov-05 05:02N 49°12' W 002°24'615.3
2018-Nov-05 04:36N 49°16' W 002°32'212.8
2018-Nov-05 04:29N 49°17' W 002°33'716.7
2018-Nov-05 04:03N 49°24' W 002°28'111.6
2018-Nov-05 04:00N 49°25' W 002°29'3 6.9
2018-Nov-05 03:30N 49°27' W 002°32'0 0.0
2018-Nov-05 03:03N 49°27' W 002°32'0 0.0
2018-Nov-05 03:00N 49°27' W 002°32'4 8.3
2018-Nov-05 02:30N 49°26' W 002°25'510.7
2018-Nov-05 02:03N 49°29' W 002°19'0 8.8
2018-Nov-05 02:00N 49°30' W 002°19'510.4
2018-Nov-05 01:29N 49°33' W 002°12'1715.1
2018-Nov-05 00:22N 49°47' W 001°59'516.0
2018-Nov-05 00:04N 49°52' W 001°55'114.6
2018-Nov-05 00:00N 49°52' W 001°55'713.8
2018-Nov-04 23:30N 49°58' W 001°49'614.1
2018-Nov-04 23:03N 50°04' W 001°44'114.8
2018-Nov-04 23:00N 50°04' W 001°43'814.8
2018-Nov-04 22:30N 50°11' W 001°37'2114.0
2018-Nov-04 20:58N 50°28' W 001°17'613.4
2018-Nov-04 20:30N 50°33' W 001°12'613.0
2018-Nov-04 20:03N 50°38' W 001°07'113.3
2018-Nov-04 19:59N 50°39' W 001°06'511.2
2018-Nov-04 19:30N 50°44' W 001°04'510.9
2018-Nov-04 19:03N 50°48' W 001°07'0 8.3
2018-Nov-04 19:00N 50°49' W 001°06'1 1.1
2018-Nov-04 18:30N 50°49' W 001°06'0 0.0
2018-Nov-04 18:03N 50°49' W 001°06'0 0.0
2018-Nov-04 18:00N 50°49' W 001°06'0 0.0
2018-Nov-04 17:30N 50°49' W 001°06'0 0.0
2018-Nov-04 17:00N 50°49' W 001°06'0 0.0
2018-Nov-04 16:30N 50°49' W 001°06'0 0.0
2018-Nov-04 16:03N 50°49' W 001°06'0 0.0
2018-Nov-04 16:00N 50°49' W 001°06'0 0.0
2018-Nov-04 15:30N 50°49' W 001°06'0 0.0
2018-Nov-04 15:03N 50°49' W 001°06'0 0.0
2018-Nov-04 15:00N 50°49' W 001°06'0 0.0
2018-Nov-04 14:30N 50°49' W 001°06'0 0.0
2018-Nov-04 14:03N 50°49' W 001°06'0 0.0
2018-Nov-04 14:00N 50°49' W 001°06'0 0.0
2018-Nov-04 13:30N 50°49' W 001°06'0 0.0
2018-Nov-04 13:03N 50°49' W 001°06'0 0.0
2018-Nov-04 13:00N 50°49' W 001°06'0 0.0
2018-Nov-04 12:30N 50°49' W 001°06'0 0.0
2018-Nov-04 12:03N 50°49' W 001°06'0 0.0
2018-Nov-04 12:00N 50°49' W 001°06'0 0.0
2018-Nov-04 11:30N 50°49' W 001°06'0 0.0
2018-Nov-04 11:03N 50°49' W 001°06'0 0.0
2018-Nov-04 11:00N 50°49' W 001°06'0 0.0
2018-Nov-04 10:30N 50°49' W 001°06'0 0.0
2018-Nov-04 10:03N 50°49' W 001°06'0 0.0
2018-Nov-04 10:00N 50°49' W 001°06'0 0.0
2018-Nov-04 09:30N 50°49' W 001°06'0 0.0
2018-Nov-04 09:03N 50°49' W 001°06'0 0.0
2018-Nov-04 09:00N 50°49' W 001°06'0 0.0
2018-Nov-04 08:30N 50°49' W 001°06'0 0.0
2018-Nov-04 08:03N 50°49' W 001°06'0 0.0
2018-Nov-04 08:00N 50°49' W 001°06'0 0.0
2018-Nov-04 07:30N 50°49' W 001°06'1 2.1
2018-Nov-04 07:04N 50°48' W 001°07'113.0
2018-Nov-04 07:00N 50°47' W 001°07'714.9
2018-Nov-04 06:31N 50°40' W 001°04'919.1
2018-Nov-04 06:03N 50°33' W 001°12'117.9
2018-Nov-04 06:00N 50°32' W 001°12'2716.4
2018-Nov-04 04:22N 50°10' W 001°36'716.3
2018-Nov-04 03:57N 50°05' W 001°43'919.4
2018-Nov-04 03:30N 49°57' W 001°50'920.1
2018-Nov-04 03:03N 49°50' W 001°57'120.9
2018-Nov-04 03:00N 49°49' W 001°58'3910.3
2018-Nov-03 23:16N 49°11' W 002°07'28 3.8
2018-Nov-03 16:04N 48°43' W 002°06'45 6.9
2018-Nov-03 09:34N 49°25' W 002°29'118.3
2018-Nov-03 09:30N 49°26' W 002°30'2 4.1
2018-Nov-03 09:04N 49°27' W 002°32'0 0.0
2018-Nov-03 09:00N 49°27' W 002°32'0 0.0
2018-Nov-03 08:30N 49°27' W 002°32'0 0.0
2018-Nov-03 08:02N 49°27' W 002°32'0 0.0
2018-Nov-03 08:00N 49°27' W 002°32'1112.1
2018-Nov-03 07:07N 49°18' W 002°24'33 4.9
2018-Nov-03 00:25N 49°47' W 002°01'513.2
2018-Nov-03 00:03N 49°51' W 001°56'113.4
2018-Nov-03 00:00N 49°52' W 001°56'613.2
2018-Nov-02 23:31N 49°58' W 001°51'612.5
2018-Nov-02 23:03N 50°02' W 001°46'113.2
2018-Nov-02 23:00N 50°03' W 001°45'713.1
2018-Nov-02 22:30N 50°08' W 001°38'714.8
2018-Nov-02 22:03N 50°13' W 001°32'1919.3
2018-Nov-02 21:05N 50°29' W 001°16'119.6
2018-Nov-02 21:03N 50°29' W 001°16'119.7
2018-Nov-02 21:00N 50°30' W 001°15'1019.8
2018-Nov-02 20:30N 50°38' W 001°06'715.1
2018-Nov-02 20:03N 50°45' W 001°05'116.4
2018-Nov-02 20:00N 50°46' W 001°05'3 5.7
2018-Nov-02 19:30N 50°49' W 001°06'0 0.0
2018-Nov-02 19:03N 50°49' W 001°06'0 0.0
2018-Nov-02 19:00N 50°49' W 001°06'0 0.0
2018-Nov-02 18:30N 50°49' W 001°06'0 0.0
2018-Nov-02 18:03N 50°49' W 001°06'0 0.0
2018-Nov-02 18:00N 50°49' W 001°06'0 0.0
2018-Nov-02 17:30N 50°49' W 001°06'0 0.0
2018-Nov-02 17:03N 50°49' W 001°06'0 0.1
2018-Nov-02 17:00N 50°49' W 001°06'0 0.0
2018-Nov-02 16:30N 50°49' W 001°06'1 2.4
2018-Nov-02 16:03N 50°48' W 001°07'112.0
2018-Nov-02 16:00N 50°47' W 001°07'714.8
2018-Nov-02 15:30N 50°40' W 001°04'511.5
2018-Nov-02 15:03N 50°36' W 001°08'0 7.9
2018-Nov-02 15:00N 50°36' W 001°09'510.5
2018-Nov-02 14:30N 50°31' W 001°13'3116.2
2018-Nov-02 12:36N 50°05' W 001°40'217.8
2018-Nov-02 12:30N 50°04' W 001°41'716.3
2018-Nov-02 12:04N 49°58' W 001°48'118.3
2018-Nov-02 12:00N 49°57' W 001°49'918.8
2018-Nov-02 11:30N 49°50' W 001°57'3817.7
2018-Nov-02 09:22N 49°15' W 002°21'7 1.5
2018-Nov-02 04:43N 49°21' W 002°26'418.3
2018-Nov-02 04:30N 49°25' W 002°29'3 7.4
2018-Nov-02 04:03N 49°27' W 002°32'0 0.0
2018-Nov-02 04:00N 49°27' W 002°32'0 0.0
2018-Nov-02 03:30N 49°27' W 002°32'0 0.0
2018-Nov-02 03:03N 49°27' W 002°32'0 0.0
2018-Nov-02 03:00N 49°27' W 002°32'4 8.0
2018-Nov-02 02:30N 49°26' W 002°26'611.3
2018-Nov-02 01:59N 49°30' W 002°19'812.5
2018-Nov-02 01:22N 49°34' W 002°09'911.2
2018-Nov-02 00:33N 49°43' W 002°05'510.6
2018-Nov-02 00:07N 49°47' W 001°60'111.4
2018-Nov-02 00:03N 49°47' W 001°59'111.7
2018-Nov-02 00:00N 49°47' W 001°59'612.5
2018-Nov-01 23:30N 49°52' W 001°52'613.2
2018-Nov-01 23:03N 49°57' W 001°46'112.8
2018-Nov-01 23:01N 49°57' W 001°46'918.3
2018-Nov-01 22:31N 50°06' W 001°40'2719.1
2018-Nov-01 21:05N 50°28' W 001°17'119.5
2018-Nov-01 21:03N 50°29' W 001°16'119.5
2018-Nov-01 21:00N 50°30' W 001°16'1019.7
2018-Nov-01 20:30N 50°38' W 001°06'614.6
2018-Nov-01 20:03N 50°44' W 001°04'114.0
2018-Nov-01 20:00N 50°44' W 001°05'4 8.7
2018-Nov-01 19:30N 50°49' W 001°06'0 0.0
2018-Nov-01 19:03N 50°49' W 001°06'0 0.0
2018-Nov-01 19:00N 50°49' W 001°06'0 0.0
2018-Nov-01 18:30N 50°49' W 001°06'0 0.0
2018-Nov-01 18:03N 50°49' W 001°06'0 0.0
2018-Nov-01 18:00N 50°49' W 001°06'0 0.0
2018-Nov-01 17:30N 50°49' W 001°06'0 0.0
2018-Nov-01 17:03N 50°49' W 001°06'0 0.0
2018-Nov-01 17:00N 50°49' W 001°06'0 0.0
2018-Nov-01 16:30N 50°49' W 001°06'1 2.3
2018-Nov-01 16:03N 50°48' W 001°07'112.1
2018-Nov-01 16:01N 50°47' W 001°07'714.7
2018-Nov-01 15:31N 50°40' W 001°04'613.8
2018-Nov-01 15:03N 50°35' W 001°09'115.6
2018-Nov-01 15:00N 50°34' W 001°10'714.3
2018-Nov-01 14:30N 50°28' W 001°16'2112.2
2018-Nov-01 12:46N 50°11' W 001°34'413.5
2018-Nov-01 12:28N 50°07' W 001°38'613.5
2018-Nov-01 12:01N 50°02' W 001°43'014.4
2018-Nov-01 12:00N 50°02' W 001°44'613.3
2018-Nov-01 11:30N 49°57' W 001°49'919.4
2018-Nov-01 11:04N 49°50' W 001°57'119.9
2018-Nov-01 11:00N 49°49' W 001°58'32 4.9
2018-Nov-01 04:20N 49°23' W 002°27'415.8
2018-Nov-01 04:03N 49°27' W 002°30'114.6
2018-Nov-01 04:00N 49°27' W 002°30'1 1.7
2018-Nov-01 03:30N 49°27' W 002°32'0 0.0
2018-Nov-01 03:03N 49°27' W 002°32'0 0.0
2018-Nov-01 03:00N 49°27' W 002°32'4 8.1
2018-Nov-01 02:30N 49°26' W 002°26'  

Dump ship's entire track history